Time;durP1;ratioP1;P1;durP2;ratioP2;P2;SDS_P1;SDS_P2;PMS_P1;PMS_P2;Temp;Humidity;BMP_temperature;BMP_pressure;BME280_temperature;BME280_humidity;BME280_pressure;Samples;Min_cycle;Max_cycle;Signal;HPM_P1;HPM_P2
2022/05/10 00:00:54;;;;;;;21.50;19.38;;;;;;;;;;5018926;28;20422;-67
2022/05/10 00:03:22;;;;;;;22.02;20.15;;;;;;;;;;5016649;28;20440;-68
2022/05/10 00:05:48;;;;;;;22.63;20.35;;;;;;;;;;5021590;28;20037;-67
2022/05/10 00:08:16;;;;;;;21.27;19.48;;;;;;;;;;5021788;28;20129;-67
2022/05/10 00:10:45;;;;;;;22.88;20.83;;;;;;;;;;5018662;28;20041;-68
2022/05/10 00:13:11;;;;;;;22.27;20.13;;;;;;;;;;5022439;28;20064;-68
2022/05/10 00:15:38;;;;;;;22.27;20.48;;;;;;;;;;5024382;28;20041;-68
2022/05/10 00:18:04;;;;;;;23.48;21.38;;;;;;;;;;5010019;28;20796;-67
2022/05/10 00:20:30;;;;;;;22.88;20.98;;;;;;;;;;5019877;28;20033;-68
2022/05/10 00:22:56;;;;;;;23.77;21.38;;;;;;;;;;5021612;28;20080;-68
2022/05/10 00:25:25;;;;;;;22.98;20.88;;;;;;;;;;5026813;28;20033;-68
2022/05/10 00:27:50;;;;;;;22.35;20.35;;;;;;;;;;5023846;28;20033;-69
2022/05/10 00:30:16;;;;;;;23.40;21.27;;;;;;;;;;5026478;28;20041;-69
2022/05/10 00:32:43;;;;;;;24.45;22.15;;;;;;;;;;5023829;28;20576;-69
2022/05/10 00:35:27;;;;;;;22.05;20.17;;;;;;;;;;5025290;28;20037;-69
2022/05/10 00:37:56;;;;;;;22.40;20.45;;;;;;;;;;5020343;28;20041;-67
2022/05/10 00:40:25;;;;;;;25.13;20.13;;;;;;;;;;5017226;28;20061;-67
2022/05/10 00:42:56;;;;;;;23.20;20.83;;;;;;;;;;5015796;28;20081;-67
2022/05/10 00:45:36;;;;;;;22.35;20.42;;;;;;;;;;5018021;28;20139;-67
2022/05/10 00:48:18;;;;;;;22.00;20.13;;;;;;;;;;5024120;28;20120;-69
2022/05/10 00:50:51;;;;;;;22.25;20.17;;;;;;;;;;5025039;28;20036;-68
2022/05/10 00:53:30;;;;;;;24.05;21.55;;;;;;;;;;5024223;28;20037;-67
2022/05/10 00:56:23;;;;;;;23.38;21.27;;;;;;;;;;5022142;28;20037;-68
2022/05/10 00:58:55;;;;;;;22.85;20.90;;;;;;;;;;5019335;28;20041;-68
2022/05/10 01:01:28;;;;;;;23.30;21.23;;;;;;;;;;5014904;28;20044;-67
2022/05/10 01:04:26;;;;;;;23.98;21.83;;;;;;;;;;5015859;28;20199;-67
2022/05/10 01:07:24;;;;;;;25.90;22.00;;;;;;;;;;5020191;28;20422;-67
2022/05/10 01:09:55;;;;;;;23.67;21.60;;;;;;;;;;5009741;28;20125;-66
2022/05/10 01:12:31;;;;;;;25.20;22.65;;;;;;;;;;5020791;28;20783;-69
2022/05/10 01:15:03;;;;;;;24.55;22.25;;;;;;;;;;5024677;28;20060;-67
2022/05/10 01:17:30;;;;;;;25.10;22.27;;;;;;;;;;5024411;28;20096;-68
2022/05/10 01:19:56;;;;;;;24.55;22.38;;;;;;;;;;5020260;28;20029;-67
2022/05/10 01:22:50;;;;;;;25.08;22.67;;;;;;;;;;5022518;28;20040;-67
2022/05/10 01:25:38;;;;;;;24.77;22.63;;;;;;;;;;5019325;28;20482;-68
2022/05/10 01:28:12;;;;;;;24.55;22.13;;;;;;;;;;5010891;28;20687;-68
2022/05/10 01:30:37;;;;;;;24.20;22.17;;;;;;;;;;5018335;28;20511;-69
2022/05/10 01:36:00;;;;;;;25.05;22.42;;;;;;;;;;5023212;28;20025;-68
2022/05/10 01:39:08;;;;;;;24.45;22.20;;;;;;;;;;5019654;28;20045;-67
2022/05/10 01:41:54;;;;;;;23.73;21.70;;;;;;;;;;5019736;28;20548;-67
2022/05/10 01:44:32;;;;;;;25.45;23.10;;;;;;;;;;5024230;28;20052;-67
2022/05/10 01:47:05;;;;;;;26.20;23.65;;;;;;;;;;5017825;28;20041;-68
2022/05/10 01:49:48;;;;;;;26.38;23.67;;;;;;;;;;5024595;28;20037;-67
2022/05/10 01:52:22;;;;;;;28.85;25.02;;;;;;;;;;5022022;28;20041;-68
2022/05/10 01:54:59;;;;;;;26.35;23.85;;;;;;;;;;5024019;28;20025;-66
2022/05/10 01:57:25;;;;;;;26.75;24.20;;;;;;;;;;5020496;28;20033;-68
2022/05/10 02:00:01;;;;;;;26.52;23.85;;;;;;;;;;5016014;28;20087;-67
2022/05/10 02:02:28;;;;;;;25.45;23.00;;;;;;;;;;5022046;28;20150;-68
2022/05/10 02:04:58;;;;;;;26.90;24.10;;;;;;;;;;5023343;28;20044;-67
2022/05/10 02:07:26;;;;;;;25.55;23.05;;;;;;;;;;5022468;28;20139;-67
2022/05/10 02:10:14;;;;;;;25.58;23.10;;;;;;;;;;5017273;28;20493;-67
2022/05/10 02:12:52;;;;;;;26.88;24.08;;;;;;;;;;5019677;28;20120;-69
2022/05/10 02:15:23;;;;;;;26.17;23.42;;;;;;;;;;5013777;28;20037;-66
2022/05/10 02:17:52;;;;;;;27.25;24.55;;;;;;;;;;5012819;28;20486;-67
2022/05/10 02:20:22;;;;;;;29.08;26.15;;;;;;;;;;5016416;28;20045;-69
2022/05/10 02:22:58;;;;;;;27.20;24.55;;;;;;;;;;5021775;28;20041;-69
2022/05/10 02:25:48;;;;;;;28.30;25.65;;;;;;;;;;5024998;28;20036;-67
2022/05/10 02:28:40;;;;;;;26.88;24.30;;;;;;;;;;5024962;28;20045;-67
2022/05/10 02:31:29;;;;;;;26.75;24.30;;;;;;;;;;5022588;28;20033;-67
2022/05/10 02:33:55;;;;;;;29.73;26.83;;;;;;;;;;5018994;28;20045;-68
2022/05/10 02:36:21;;;;;;;28.00;25.45;;;;;;;;;;5023582;28;20721;-68
2022/05/10 02:38:47;;;;;;;27.85;24.85;;;;;;;;;;5015824;28;20026;-67
2022/05/10 02:41:16;;;;;;;27.30;24.75;;;;;;;;;;5010472;28;23426;-68
2022/05/10 02:43:53;;;;;;;;;;;;;;;;;;5021368;28;20526;-68
2022/05/10 02:46:18;;;;;;;26.50;24.15;;;;;;;;;;5022667;28;19913;-68
2022/05/10 02:48:47;;;;;;;27.63;24.92;;;;;;;;;;5014198;28;20504;-67
2022/05/10 02:51:13;;;;;;;28.67;25.85;;;;;;;;;;5023058;28;20034;-67
2022/05/10 02:53:39;;;;;;;27.98;25.17;;;;;;;;;;5024823;28;20065;-70
2022/05/10 02:56:11;;;;;;;27.83;24.92;;;;;;;;;;5022020;28;20061;-68
2022/05/10 02:58:55;;;;;;;28.10;25.27;;;;;;;;;;5017914;28;20037;-67
2022/05/10 03:01:44;;;;;;;31.65;26.77;;;;;;;;;;5021244;28;20041;-67
2022/05/10 03:04:11;;;;;;;28.20;25.40;;;;;;;;;;5022937;28;20042;-67
2022/05/10 03:06:39;;;;;;;29.08;26.17;;;;;;;;;;5027182;28;20033;-67
2022/05/10 03:09:06;;;;;;;27.55;25.00;;;;;;;;;;5025118;28;20045;-68
2022/05/10 03:11:32;;;;;;;28.10;25.38;;;;;;;;;;5025128;28;20045;-67
2022/05/10 03:13:58;;;;;;;27.23;24.67;;;;;;;;;;5024212;28;20036;-67
2022/05/10 03:16:25;;;;;;;28.20;25.30;;;;;;;;;;5026523;28;20037;-67
2022/05/10 03:18:52;;;;;;;26.25;23.45;;;;;;;;;;5022267;28;20107;-68
2022/05/10 03:21:18;;;;;;;25.08;22.77;;;;;;;;;;5025347;28;20066;-68
2022/05/10 03:23:44;;;;;;;26.50;23.77;;;;;;;;;;5028270;28;20607;-68
2022/05/10 03:26:12;;;;;;;26.92;24.33;;;;;;;;;;5025338;28;20037;-69
2022/05/10 03:28:38;;;;;;;27.55;24.85;;;;;;;;;;5026179;28;20420;-68
2022/05/10 03:31:05;;;;;;;26.55;24.08;;;;;;;;;;5015897;28;20046;-67
2022/05/10 03:33:31;;;;;;;25.92;23.52;;;;;;;;;;5021288;28;20064;-68
2022/05/10 03:35:56;;;;;;;26.60;24.15;;;;;;;;;;5025053;28;20061;-65
2022/05/10 03:38:22;;;;;;;28.38;25.55;;;;;;;;;;5024557;28;20676;-66
2022/05/10 03:40:48;;;;;;;27.75;25.10;;;;;;;;;;5025031;28;20038;-66
2022/05/10 03:43:13;;;;;;;28.63;25.92;;;;;;;;;;5014922;28;20049;-67
2022/05/10 03:45:39;;;;;;;29.00;26.17;;;;;;;;;;5014410;28;20044;-66
2022/05/10 03:48:05;;;;;;;29.48;26.67;;;;;;;;;;5024055;28;20038;-66
2022/05/10 03:50:31;;;;;;;27.77;25.13;;;;;;;;;;5021969;28;20108;-66
2022/05/10 03:52:56;;;;;;;27.52;24.95;;;;;;;;;;5018897;28;20116;-66
2022/05/10 03:55:26;;;;;;;28.00;25.23;;;;;;;;;;5022270;28;20041;-67
2022/05/10 03:57:55;;;;;;;29.73;26.90;;;;;;;;;;5026207;28;20116;-66
2022/05/10 04:00:28;;;;;;;28.92;25.98;;;;;;;;;;5021461;28;20885;-67
2022/05/10 04:02:56;;;;;;;28.52;25.83;;;;;;;;;;5018218;28;20041;-68
2022/05/10 04:05:23;;;;;;;29.15;26.27;;;;;;;;;;5022257;28;20037;-67
2022/05/10 04:07:49;;;;;;;28.85;25.95;;;;;;;;;;5024311;28;20038;-66
2022/05/10 04:10:16;;;;;;;27.10;24.40;;;;;;;;;;5015977;28;20065;-67
2022/05/10 04:12:41;;;;;;;28.65;25.85;;;;;;;;;;5018817;28;20137;-67
2022/05/10 04:15:10;;;;;;;26.67;24.08;;;;;;;;;;5020594;28;20133;-67
2022/05/10 04:17:36;;;;;;;27.13;24.63;;;;;;;;;;5015327;28;20570;-67
2022/05/10 04:20:04;;;;;;;28.33;25.63;;;;;;;;;;5019579;28;20037;-67
2022/05/10 04:22:29;;;;;;;27.20;24.52;;;;;;;;;;5021419;28;20033;-67
2022/05/10 04:24:55;;;;;;;27.13;24.55;;;;;;;;;;5021961;28;20030;-68
2022/05/10 04:27:20;;;;;;;26.75;24.10;;;;;;;;;;5025700;28;20048;-68
2022/05/10 04:29:46;;;;;;;26.10;23.58;;;;;;;;;;5024911;28;20038;-68
2022/05/10 04:32:11;;;;;;;24.77;22.55;;;;;;;;;;5025192;28;20061;-67
2022/05/10 04:34:39;;;;;;;25.92;23.52;;;;;;;;;;5024496;28;20045;-67
2022/05/10 04:37:04;;;;;;;25.50;23.00;;;;;;;;;;5024238;28;20095;-66
2022/05/10 04:41:24;;;;;;;24.70;22.52;;;;;;;;;;5021923;28;20116;-66
2022/05/10 04:42:15;;;;;;;23.52;21.27;;;;;;;;;;5021225;28;20038;-68
2022/05/10 04:44:41;;;;;;;24.83;22.27;;;;;;;;;;5024301;28;20041;-66
2022/05/10 04:47:07;;;;;;;23.77;21.38;;;;;;;;;;5022032;28;20531;-68
2022/05/10 04:49:33;;;;;;;24.42;22.23;;;;;;;;;;5023305;28;20282;-66
2022/05/10 04:51:59;;;;;;;23.80;21.50;;;;;;;;;;5020389;28;20125;-67
2022/05/10 04:54:24;;;;;;;24.40;22.02;;;;;;;;;;5026675;28;20033;-66
2022/05/10 04:56:50;;;;;;;23.15;20.85;;;;;;;;;;5020627;28;20470;-67
2022/05/10 04:59:15;;;;;;;23.30;21.27;;;;;;;;;;5021782;28;20034;-67
2022/05/10 05:01:41;;;;;;;24.05;21.75;;;;;;;;;;5015349;28;20041;-66
2022/05/10 05:04:07;;;;;;;22.95;20.95;;;;;;;;;;5023022;28;20041;-67
2022/05/10 05:06:34;;;;;;;21.75;19.95;;;;;;;;;;5026171;28;20048;-68
2022/05/10 05:09:00;;;;;;;22.48;20.35;;;;;;;;;;5021903;28;20500;-67
2022/05/10 05:11:26;;;;;;;21.48;19.67;;;;;;;;;;5024055;28;20116;-66
2022/05/10 05:13:52;;;;;;;21.10;19.40;;;;;;;;;;5009780;28;20041;-66
2022/05/10 05:16:18;;;;;;;21.30;19.40;;;;;;;;;;5009622;28;20029;-67
2022/05/10 05:18:45;;;;;;;20.77;18.88;;;;;;;;;;5022334;28;20049;-67
2022/05/10 05:21:11;;;;;;;21.98;20.08;;;;;;;;;;5026349;28;20037;-68
2022/05/10 05:23:36;;;;;;;21.73;19.73;;;;;;;;;;5024749;28;20052;-67
2022/05/10 05:26:02;;;;;;;20.27;18.67;;;;;;;;;;5023019;28;20034;-67
2022/05/10 05:28:29;;;;;;;20.65;18.95;;;;;;;;;;5024989;28;20026;-66
2022/05/10 05:30:55;;;;;;;20.85;18.95;;;;;;;;;;5030166;28;20037;-67
2022/05/10 05:33:21;;;;;;;22.17;19.17;;;;;;;;;;5023482;28;20708;-68
2022/05/10 05:35:46;;;;;;;20.02;18.40;;;;;;;;;;5026652;28;20072;-66
2022/05/10 05:38:12;;;;;;;19.48;17.83;;;;;;;;;;5016353;28;20057;-66
2022/05/10 05:40:38;;;;;;;19.05;17.52;;;;;;;;;;5009156;28;20061;-66
2022/05/10 05:43:06;;;;;;;19.10;17.50;;;;;;;;;;5013848;28;20033;-67
2022/05/10 05:45:32;;;;;;;19.60;17.98;;;;;;;;;;5023750;28;20026;-67
2022/05/10 05:48:00;;;;;;;19.75;18.05;;;;;;;;;;5012634;28;20030;-68
2022/05/10 05:50:26;;;;;;;19.75;18.17;;;;;;;;;;5022077;28;20030;-67
2022/05/10 05:52:52;;;;;;;19.90;18.30;;;;;;;;;;5021041;28;20025;-67
2022/05/10 05:55:19;;;;;;;21.42;19.30;;;;;;;;;;5024304;28;20438;-67
2022/05/10 05:57:45;;;;;;;19.27;17.45;;;;;;;;;;5014292;28;20104;-66
2022/05/10 06:00:18;;;;;;;19.35;17.75;;;;;;;;;;5023330;28;20041;-67
2022/05/10 06:02:44;;;;;;;19.65;18.10;;;;;;;;;;5014427;28;20030;-66
2022/05/10 06:05:10;;;;;;;20.35;18.65;;;;;;;;;;5018243;28;20038;-66
2022/05/10 06:07:35;;;;;;;20.05;18.45;;;;;;;;;;5024944;28;20070;-67
2022/05/10 06:10:01;;;;;;;19.48;17.70;;;;;;;;;;5023756;28;20083;-68
2022/05/10 06:12:27;;;;;;;19.67;18.17;;;;;;;;;;5014716;28;20504;-66
2022/05/10 06:14:53;;;;;;;19.55;17.83;;;;;;;;;;5011196;28;20033;-66
2022/05/10 06:17:18;;;;;;;19.40;17.90;;;;;;;;;;5022565;28;20038;-66
2022/05/10 06:19:45;;;;;;;19.58;18.08;;;;;;;;;;5015083;28;20525;-66
2022/05/10 06:22:13;;;;;;;19.48;17.98;;;;;;;;;;5024790;28;20050;-66
2022/05/10 06:24:39;;;;;;;19.85;18.35;;;;;;;;;;5018934;28;20041;-66
2022/05/10 06:27:12;;;;;;;19.35;17.67;;;;;;;;;;5022543;28;20037;-66
2022/05/10 06:29:37;;;;;;;20.00;18.13;;;;;;;;;;5016206;28;20033;-66
2022/05/10 06:32:03;;;;;;;19.30;17.58;;;;;;;;;;5019750;28;20037;-66
2022/05/10 06:34:29;;;;;;;20.30;18.52;;;;;;;;;;5020207;28;20553;-65
2022/05/10 06:36:54;;;;;;;20.75;19.15;;;;;;;;;;5021170;28;20108;-66
2022/05/10 06:39:20;;;;;;;18.50;17.02;;;;;;;;;;5013995;28;20058;-66
2022/05/10 06:41:45;;;;;;;20.65;18.52;;;;;;;;;;5024909;28;20036;-66
2022/05/10 06:44:11;;;;;;;20.83;19.25;;;;;;;;;;5013060;28;20036;-66
2022/05/10 06:46:37;;;;;;;20.08;17.13;;;;;;;;;;5020369;28;20063;-66
2022/05/10 06:49:04;;;;;;;18.58;17.15;;;;;;;;;;5023406;28;20033;-65
2022/05/10 06:51:31;;;;;;;19.35;17.95;;;;;;;;;;5025332;28;20039;-66
2022/05/10 06:53:56;;;;;;;19.70;17.95;;;;;;;;;;5023816;28;20029;-67
2022/05/10 06:56:23;;;;;;;18.98;17.33;;;;;;;;;;5018189;28;20093;-66
2022/05/10 06:58:49;;;;;;;19.45;17.75;;;;;;;;;;5022038;28;20029;-66
2022/05/10 07:01:15;;;;;;;18.58;17.17;;;;;;;;;;5021701;28;20068;-66
2022/05/10 07:03:45;;;;;;;18.88;17.48;;;;;;;;;;5023568;28;20080;-67
2022/05/10 07:06:13;;;;;;;17.70;16.10;;;;;;;;;;5022317;28;20489;-65
2022/05/10 07:08:40;;;;;;;18.83;17.35;;;;;;;;;;5019303;28;20033;-66
2022/05/10 07:11:06;;;;;;;17.77;16.42;;;;;;;;;;5022966;28;20473;-66
2022/05/10 07:13:33;;;;;;;18.80;17.13;;;;;;;;;;5024947;28;20096;-66
2022/05/10 07:15:59;;;;;;;19.33;17.73;;;;;;;;;;5017384;28;20035;-66
2022/05/10 07:18:25;;;;;;;19.42;17.60;;;;;;;;;;5022580;28;20524;-66
2022/05/10 07:20:52;;;;;;;19.17;17.77;;;;;;;;;;5017642;28;20083;-66
2022/05/10 07:23:23;;;;;;;19.02;17.52;;;;;;;;;;5023206;28;20038;-66
2022/05/10 07:25:49;;;;;;;18.08;16.48;;;;;;;;;;5021636;28;20029;-66
2022/05/10 07:28:16;;;;;;;18.77;16.88;;;;;;;;;;5023679;28;20397;-65
2022/05/10 07:30:42;;;;;;;17.77;16.05;;;;;;;;;;5024060;28;20524;-66
2022/05/10 07:33:08;;;;;;;19.42;17.60;;;;;;;;;;5023605;28;20049;-67
2022/05/10 07:38:23;;;;;;;17.58;16.10;;;;;;;;;;5019850;28;20021;-71
2022/05/10 07:40:53;;;;;;;17.00;15.63;;;;;;;;;;5027968;28;21828;-66
2022/05/10 07:43:19;;;;;;;17.45;15.80;;;;;;;;;;5021862;28;20133;-66
2022/05/10 07:45:50;;;;;;;16.65;14.90;;;;;;;;;;5011392;28;20029;-66
2022/05/10 07:48:15;;;;;;;17.13;15.82;;;;;;;;;;5022578;28;20416;-66
2022/05/10 07:50:42;;;;;;;17.85;16.45;;;;;;;;;;5027916;28;20037;-66
2022/05/10 07:53:13;;;;;;;17.65;16.15;;;;;;;;;;5025878;28;20040;-66
2022/05/10 07:55:40;;;;;;;16.02;14.70;;;;;;;;;;5024575;28;20071;-66
2022/05/10 07:58:07;;;;;;;17.02;15.73;;;;;;;;;;5027326;28;20033;-66
2022/05/10 08:00:34;;;;;;;16.40;15.10;;;;;;;;;;5011189;28;20042;-66
2022/05/10 08:03:08;;;;;;;17.35;15.85;;;;;;;;;;5016624;28;20102;-66
2022/05/10 08:05:34;;;;;;;17.00;15.70;;;;;;;;;;5025462;28;20076;-66
2022/05/10 08:07:59;;;;;;;17.05;15.75;;;;;;;;;;5021568;28;20026;-66
2022/05/10 08:10:26;;;;;;;17.05;15.75;;;;;;;;;;5020334;28;20404;-66
2022/05/10 08:12:51;;;;;;;16.65;15.43;;;;;;;;;;5018549;28;20030;-66
2022/05/10 08:15:17;;;;;;;16.52;14.95;;;;;;;;;;5025469;28;20103;-66
2022/05/10 08:17:42;;;;;;;16.45;15.25;;;;;;;;;;5029109;28;20358;-66
2022/05/10 08:20:10;;;;;;;16.92;15.63;;;;;;;;;;5024782;28;20514;-66
2022/05/10 08:22:36;;;;;;;17.10;15.80;;;;;;;;;;5027389;28;20034;-66
2022/05/10 08:25:03;;;;;;;16.13;14.93;;;;;;;;;;5025123;28;20091;-66
2022/05/10 08:27:28;;;;;;;17.05;15.48;;;;;;;;;;5018289;28;20032;-67
2022/05/10 08:29:54;;;;;;;16.88;14.95;;;;;;;;;;5026912;28;20041;-67
2022/05/10 08:32:19;;;;;;;15.88;14.40;;;;;;;;;;5026855;28;20079;-67
2022/05/10 08:34:45;;;;;;;15.63;14.13;;;;;;;;;;5024143;28;20083;-67
2022/05/10 08:37:11;;;;;;;14.35;13.30;;;;;;;;;;5025591;28;20205;-67
2022/05/10 08:39:36;;;;;;;15.73;14.55;;;;;;;;;;5013808;28;20042;-67
2022/05/10 08:42:14;;;;;;;16.75;15.43;;;;;;;;;;5010628;28;20034;-66
2022/05/10 08:44:41;;;;;;;16.27;14.80;;;;;;;;;;5016395;28;20477;-66
2022/05/10 08:47:10;;;;;;;15.05;13.93;;;;;;;;;;5027785;28;20041;-66
2022/05/10 08:49:50;;;;;;;15.45;14.45;;;;;;;;;;5021700;28;20040;-66
2022/05/10 08:52:16;;;;;;;16.55;15.25;;;;;;;;;;5022359;28;20125;-66
2022/05/10 08:54:43;;;;;;;16.08;14.88;;;;;;;;;;5027555;28;20044;-66
2022/05/10 08:57:24;;;;;;;15.45;14.25;;;;;;;;;;5027666;28;20111;-66
2022/05/10 09:00:05;;;;;;;15.70;14.60;;;;;;;;;;5016068;28;20042;-66
2022/05/10 09:02:40;;;;;;;14.30;13.18;;;;;;;;;;5021537;28;20045;-66
2022/05/10 09:05:24;;;;;;;15.77;14.40;;;;;;;;;;5024244;28;20112;-66
2022/05/10 09:08:28;;;;;;;14.25;13.25;;;;;;;;;;5021024;28;20379;-65
2022/05/10 09:10:59;;;;;;;14.48;13.20;;;;;;;;;;5022687;28;20037;-65
2022/05/10 09:13:24;;;;;;;15.77;14.23;;;;;;;;;;5017081;28;20433;-66
2022/05/10 09:16:02;;;;;;;14.30;13.13;;;;;;;;;;5009965;28;20258;-66
2022/05/10 09:18:37;;;;;;;12.93;11.93;;;;;;;;;;5025141;28;20025;-65
2022/05/10 09:21:23;;;;;;;13.63;12.63;;;;;;;;;;5026114;28;20099;-64
2022/05/10 09:23:57;;;;;;;13.52;12.35;;;;;;;;;;5026389;28;20481;-65
2022/05/10 09:26:30;;;;;;;14.70;13.38;;;;;;;;;;5039152;28;20266;-65
2022/05/10 09:29:05;;;;;;;13.48;12.57;;;;;;;;;;5012564;28;20060;-65
2022/05/10 09:37:40;;;;;;;12.20;11.30;;;;;;;;;;5024911;28;20124;-68
2022/05/10 09:40:09;;;;;;;12.38;11.48;;;;;;;;;;5022419;28;20382;-67
2022/05/10 09:42:43;;;;;;;12.52;11.60;;;;;;;;;;5025449;28;20047;-66
2022/05/10 09:45:22;;;;;;;13.55;12.48;;;;;;;;;;5021802;28;20048;-66
2022/05/10 09:48:00;;;;;;;12.50;11.60;;;;;;;;;;5009105;28;20034;-67
2022/05/10 09:50:30;;;;;;;13.35;12.35;;;;;;;;;;5022213;28;20041;-67
2022/05/10 09:53:25;;;;;;;12.77;11.80;;;;;;;;;;5022325;28;20034;-66
2022/05/10 09:55:52;;;;;;;11.98;11.18;;;;;;;;;;5022482;28;20548;-66
2022/05/10 09:58:22;;;;;;;12.65;11.63;;;;;;;;;;5009007;28;20061;-66
2022/05/10 10:00:52;;;;;;;12.35;11.45;;;;;;;;;;5012712;28;20528;-65
2022/05/10 10:03:32;;;;;;;11.63;10.82;;;;;;;;;;5021660;28;20040;-66
2022/05/10 10:06:25;;;;;;;12.23;11.23;;;;;;;;;;5021982;28;20030;-66
2022/05/10 10:08:55;;;;;;;12.02;11.10;;;;;;;;;;5020984;28;20021;-65
2022/05/10 10:11:21;;;;;;;12.90;11.93;;;;;;;;;;5024142;28;20030;-65
2022/05/10 10:13:50;;;;;;;12.07;11.13;;;;;;;;;;5022573;28;20092;-66
2022/05/10 10:16:24;;;;;;;11.43;10.63;;;;;;;;;;5022257;28;20043;-66
2022/05/10 10:18:58;;;;;;;11.45;10.55;;;;;;;;;;5019756;28;20117;-66
2022/05/10 10:21:41;;;;;;;10.95;10.15;;;;;;;;;;5021635;28;20103;-65
2022/05/10 10:24:07;;;;;;;10.68;9.88;;;;;;;;;;5027420;28;20104;-66
2022/05/10 10:26:45;;;;;;;11.10;10.13;;;;;;;;;;5024563;28;20060;-66
2022/05/10 10:29:32;;;;;;;10.55;9.85;;;;;;;;;;5018448;28;20045;-67
2022/05/10 10:32:07;;;;;;;11.05;10.25;;;;;;;;;;5022289;28;20076;-66
2022/05/10 10:34:48;;;;;;;11.00;10.00;;;;;;;;;;5023421;28;20135;-66
2022/05/10 10:37:26;;;;;;;11.23;10.30;;;;;;;;;;5022414;28;20091;-66
2022/05/10 10:40:15;;;;;;;10.90;10.10;;;;;;;;;;5021447;28;20037;-66
2022/05/10 10:43:08;;;;;;;12.40;10.00;;;;;;;;;;5020325;28;20033;-66
2022/05/10 10:45:46;;;;;;;10.25;9.38;;;;;;;;;;5023473;28;20471;-66
2022/05/10 10:48:45;;;;;;;10.00;9.40;;;;;;;;;;5021801;28;20099;-66
2022/05/10 10:51:12;;;;;;;10.82;9.65;;;;;;;;;;5020279;28;20124;-66
2022/05/10 10:53:39;;;;;;;10.45;9.68;;;;;;;;;;5025410;28;20094;-67
2022/05/10 10:56:14;;;;;;;10.88;10.07;;;;;;;;;;5023951;28;20045;-66
2022/05/10 10:58:48;;;;;;;10.52;9.80;;;;;;;;;;5010236;28;20042;-66
2022/05/10 11:01:38;;;;;;;11.20;10.45;;;;;;;;;;5019005;28;20052;-65
2022/05/10 11:04:45;;;;;;;10.43;9.77;;;;;;;;;;5018446;28;20040;-66
2022/05/10 11:07:21;;;;;;;10.88;9.93;;;;;;;;;;4994406;28;20210;-66
2022/05/10 11:09:54;;;;;;;11.13;10.32;;;;;;;;;;5019692;28;20029;-65
2022/05/10 11:12:23;;;;;;;10.88;10.18;;;;;;;;;;5023958;28;20048;-66
2022/05/10 11:15:16;;;;;;;10.55;9.90;;;;;;;;;;5022244;28;20253;-65
2022/05/10 11:18:12;;;;;;;13.20;10.10;;;;;;;;;;5019269;28;20063;-66
2022/05/10 11:21:03;;;;;;;10.45;9.55;;;;;;;;;;5023059;28;20259;-65
2022/05/10 11:23:35;;;;;;;10.10;9.38;;;;;;;;;;5022874;28;20039;-66
2022/05/10 11:26:14;;;;;;;10.50;9.77;;;;;;;;;;5020672;28;20033;-66
2022/05/10 11:28:58;;;;;;;10.18;9.38;;;;;;;;;;5025426;28;20026;-66
2022/05/10 11:31:39;;;;;;;10.70;9.70;;;;;;;;;;5019913;28;20057;-66
2022/05/10 11:34:31;;;;;;;10.73;10.02;;;;;;;;;;5021459;28;20087;-66
2022/05/10 11:37:01;;;;;;;10.27;9.43;;;;;;;;;;5025840;28;20550;-66
2022/05/10 11:39:36;;;;;;;10.07;9.38;;;;;;;;;;5019998;28;20619;-66
2022/05/10 11:42:26;;;;;;;10.93;10.05;;;;;;;;;;5026522;28;20029;-66
2022/05/10 11:45:38;;;;;;;10.98;10.13;;;;;;;;;;5021955;28;20603;-66
2022/05/10 11:48:25;;;;;;;11.18;10.48;;;;;;;;;;5012831;28;20571;-66
2022/05/10 11:51:44;;;;;;;10.77;9.95;;;;;;;;;;5021748;28;20037;-65
2022/05/10 11:54:55;;;;;;;10.60;9.90;;;;;;;;;;5027577;28;20044;-66
2022/05/10 11:57:23;;;;;;;10.93;10.25;;;;;;;;;;5024064;28;20075;-66
2022/05/10 11:59:48;;;;;;;10.85;10.15;;;;;;;;;;5025691;28;20221;-65
2022/05/10 12:02:29;;;;;;;10.70;9.90;;;;;;;;;;5018193;28;20099;-66
2022/05/10 12:05:10;;;;;;;11.10;10.40;;;;;;;;;;5022860;28;20064;-66
2022/05/10 12:07:43;;;;;;;11.27;10.48;;;;;;;;;;5022624;28;20029;-65
2022/05/10 12:10:35;;;;;;;10.73;10.05;;;;;;;;;;5018321;28;20045;-65
2022/05/10 12:13:08;;;;;;;12.60;11.40;;;;;;;;;;5014564;28;20037;-66
2022/05/10 12:21:21;;;;;;;11.10;10.45;;;;;;;;;;5017309;28;20133;-65
2022/05/10 12:23:59;;;;;;;11.23;10.52;;;;;;;;;;5022412;28;20040;-66
2022/05/10 12:26:38;;;;;;;11.57;10.77;;;;;;;;;;5024023;28;20049;-66
2022/05/10 12:29:26;;;;;;;;;;;;;;;;;;5018328;28;20040;-65
2022/05/10 12:31:58;;;;;;;11.90;11.10;;;;;;;;;;5003045;28;19913;-65
2022/05/10 12:34:40;;;;;;;10.95;10.23;;;;;;;;;;5023500;28;20033;-65
2022/05/10 12:37:22;;;;;;;11.77;10.90;;;;;;;;;;5019759;28;20048;-65
2022/05/10 12:40:16;;;;;;;11.63;10.93;;;;;;;;;;5020584;28;20049;-65
2022/05/10 12:43:06;;;;;;;12.38;11.57;;;;;;;;;;5020474;28;20168;-65
2022/05/10 12:45:57;;;;;;;11.90;11.10;;;;;;;;;;5025100;28;20106;-65
2022/05/10 12:48:43;;;;;;;11.80;11.00;;;;;;;;;;5022365;28;20060;-66
2022/05/10 12:51:32;;;;;;;10.90;10.15;;;;;;;;;;5020492;28;20056;-65
2022/05/10 12:54:09;;;;;;;11.75;10.50;;;;;;;;;;5025644;28;20030;-65
2022/05/10 12:56:41;;;;;;;11.35;10.40;;;;;;;;;;5022548;28;20045;-65
2022/05/10 12:59:14;;;;;;;10.80;10.10;;;;;;;;;;5019639;28;20034;-65
2022/05/10 13:01:40;;;;;;;12.68;11.60;;;;;;;;;;5015755;28;20037;-65
2022/05/10 13:04:16;;;;;;;11.80;11.00;;;;;;;;;;5014793;28;20034;-65
2022/05/10 13:06:58;;;;;;;11.70;10.75;;;;;;;;;;5023968;28;20037;-64
2022/05/10 13:09:32;;;;;;;11.15;10.45;;;;;;;;;;5024724;28;20029;-66
2022/05/10 13:12:06;;;;;;;11.55;10.52;;;;;;;;;;5010347;28;20057;-65
2022/05/10 13:14:37;;;;;;;11.38;10.68;;;;;;;;;;5016477;28;20033;-65
2022/05/10 13:17:03;;;;;;;11.65;10.85;;;;;;;;;;5024678;28;20048;-66
2022/05/10 13:19:30;;;;;;;11.35;10.65;;;;;;;;;;5014414;28;20146;-65
2022/05/10 13:21:56;;;;;;;11.98;11.07;;;;;;;;;;5023986;28;20041;-66
2022/05/10 13:24:23;;;;;;;11.50;10.70;;;;;;;;;;5023011;28;20038;-65
2022/05/10 13:27:01;;;;;;;11.65;10.63;;;;;;;;;;5017770;28;20038;-67
2022/05/10 13:30:16;;;;;;;11.65;10.95;;;;;;;;;;5021710;28;20069;-66
2022/05/10 13:32:46;;;;;;;12.00;11.20;;;;;;;;;;5019879;28;20133;-67
2022/05/10 13:35:20;;;;;;;12.98;12.07;;;;;;;;;;5023371;28;20052;-66
2022/05/10 13:38:00;;;;;;;12.13;11.27;;;;;;;;;;5015438;28;20555;-65
2022/05/10 13:40:45;;;;;;;12.48;11.68;;;;;;;;;;5009573;28;20079;-66
2022/05/10 13:43:44;;;;;;;12.63;11.82;;;;;;;;;;5020863;28;20107;-66
2022/05/10 13:46:16;;;;;;;12.63;11.68;;;;;;;;;;5020145;28;20568;-66
2022/05/10 13:49:05;;;;;;;11.93;11.15;;;;;;;;;;5008206;28;20524;-66
2022/05/10 13:51:36;;;;;;;12.82;11.68;;;;;;;;;;5021481;28;20041;-66
2022/05/10 13:54:08;;;;;;;11.50;10.80;;;;;;;;;;5023698;28;20029;-66
2022/05/10 13:56:40;;;;;;;12.40;11.50;;;;;;;;;;5018141;28;20344;-66
2022/05/10 13:59:11;;;;;;;12.57;11.52;;;;;;;;;;5009649;28;20028;-65
2022/05/10 14:01:43;;;;;;;12.45;11.45;;;;;;;;;;5021808;28;20535;-66
2022/05/10 14:04:11;;;;;;;12.35;11.52;;;;;;;;;;5009711;28;20037;-66
2022/05/10 14:06:53;;;;;;;12.60;11.60;;;;;;;;;;5022686;28;20040;-66
2022/05/10 14:09:24;;;;;;;11.90;11.00;;;;;;;;;;5017134;28;20069;-66
2022/05/10 14:11:52;;;;;;;11.32;10.63;;;;;;;;;;5018243;28;20038;-66
2022/05/10 14:14:24;;;;;;;11.93;11.13;;;;;;;;;;5007329;28;20108;-66
2022/05/10 14:16:50;;;;;;;11.65;10.85;;;;;;;;;;5016383;28;20441;-66
2022/05/10 14:19:32;;;;;;;12.82;11.18;;;;;;;;;;5019578;28;20378;-66
2022/05/10 14:22:04;;;;;;;12.57;11.60;;;;;;;;;;5022843;28;20030;-65
2022/05/10 14:24:34;;;;;;;12.30;11.38;;;;;;;;;;5022783;28;20068;-66
2022/05/10 14:27:12;;;;;;;12.63;11.73;;;;;;;;;;5022210;28;20060;-66
2022/05/10 14:29:43;;;;;;;12.37;11.23;;;;;;;;;;5011991;28;20041;-66
2022/05/10 14:32:12;;;;;;;11.88;11.00;;;;;;;;;;5020323;28;20049;-66
2022/05/10 14:35:00;;;;;;;11.40;10.70;;;;;;;;;;5023777;28;20398;-66
2022/05/10 14:37:29;;;;;;;11.90;10.95;;;;;;;;;;5017301;28;20425;-66
2022/05/10 14:39:57;;;;;;;12.30;11.50;;;;;;;;;;5015633;28;20048;-65
2022/05/10 14:42:30;;;;;;;11.15;10.45;;;;;;;;;;5018660;28;20033;-66
2022/05/10 14:45:17;;;;;;;12.02;11.32;;;;;;;;;;5006548;28;20046;-65
2022/05/10 14:47:42;;;;;;;12.57;11.50;;;;;;;;;;5022368;28;20477;-65
2022/05/10 14:50:28;;;;;;;11.82;11.02;;;;;;;;;;5027048;28;20060;-66
2022/05/10 14:53:20;;;;;;;12.85;11.95;;;;;;;;;;5023974;28;20037;-65
2022/05/10 14:55:52;;;;;;;13.48;12.20;;;;;;;;;;5027900;28;20041;-66
2022/05/10 14:58:22;;;;;;;13.65;12.23;;;;;;;;;;5025236;28;20044;-66
2022/05/10 15:01:25;;;;;;;12.55;11.80;;;;;;;;;;5014735;28;20458;-65
2022/05/10 15:04:04;;;;;;;12.95;11.98;;;;;;;;;;5021744;28;21656;-65
2022/05/10 15:06:31;;;;;;;12.35;11.35;;;;;;;;;;5025911;28;20045;-65
2022/05/10 15:08:57;;;;;;;12.48;11.48;;;;;;;;;;5027604;28;20080;-65